Time;durP1;ratioP1;P1;durP2;ratioP2;P2;SDS_P1;SDS_P2;PMS_P1;PMS_P2;Temp;Humidity;BMP_temperature;BMP_pressure;BME280_temperature;BME280_humidity;BME280_pressure;Samples;Min_cycle;Max_cycle;Signal;HPM_P1;HPM_P2
2022/01/29 00:02:24;;;;;;;40.40;20.60;;;;;;;;;;5022156;28;20085;-83
2022/01/29 00:08:23;;;;;;;40.88;20.23;;;;;;;;;;4994559;28;20061;-85
2022/01/29 00:11:35;;;;;;;39.90;20.45;;;;;;;;;;4999044;28;20062;-82
2022/01/29 00:14:09;;;;;;;38.28;20.45;;;;;;;;;;4999011;28;20029;-82
2022/01/29 00:16:36;;;;;;;40.72;21.05;;;;;;;;;;4983044;28;20034;-84
2022/01/29 00:19:11;;;;;;;40.45;20.73;;;;;;;;;;5004697;28;20026;-84
2022/01/29 00:21:39;;;;;;;38.33;20.88;;;;;;;;;;5039000;28;20022;-85
2022/01/29 00:24:22;;;;;;;36.13;20.58;;;;;;;;;;5038761;28;20026;-84
2022/01/29 00:26:49;;;;;;;46.80;20.95;;;;;;;;;;5022204;28;20037;-83
2022/01/29 00:29:20;;;;;;;38.53;21.05;;;;;;;;;;5038977;28;20029;-85
2022/01/29 00:31:50;;;;;;;40.17;21.67;;;;;;;;;;5006611;28;20024;-83
2022/01/29 00:48:02;;;;;;;42.05;23.73;;;;;;;;;;4652710;23;20043;-83
2022/01/29 00:50:53;;;;;;;;;;;;;;;;;;;;;
2022/01/29 00:53:31;;;;;;;55.28;27.58;;;;;;;;;;4960508;29;20044;-83
2022/01/29 00:56:06;;;;;;;49.15;25.27;;;;;;;;;;4944726;29;20032;-84
2022/01/29 00:58:38;;;;;;;58.08;29.83;;;;;;;;;;4944573;29;20052;-83
2022/01/29 01:01:19;;;;;;;54.65;28.73;;;;;;;;;;4960954;29;20030;-83
2022/01/29 01:03:52;;;;;;;54.72;29.63;;;;;;;;;;4945147;29;20463;-86
2022/01/29 01:06:26;;;;;;;60.17;31.40;;;;;;;;;;4929525;29;20032;-83
2022/01/29 01:08:59;;;;;;;55.08;29.20;;;;;;;;;;4945581;29;20024;-85
2022/01/29 01:11:34;;;;;;;68.38;32.58;;;;;;;;;;4960943;29;20079;-83
2022/01/29 01:14:03;;;;;;;59.40;30.08;;;;;;;;;;4929246;29;20083;-84
2022/01/29 01:16:37;;;;;;;60.05;31.75;;;;;;;;;;4945414;29;20099;-85
2022/01/29 01:19:06;;;;;;;64.78;31.42;;;;;;;;;;4929374;29;20040;-83
2022/01/29 01:21:33;;;;;;;55.42;30.45;;;;;;;;;;4944650;29;20096;-83
2022/01/29 01:24:01;;;;;;;59.30;31.33;;;;;;;;;;4930658;29;20047;-83
2022/01/29 01:26:35;;;;;;;54.53;31.02;;;;;;;;;;4932497;29;20043;-82
2022/01/29 01:29:05;;;;;;;61.15;30.85;;;;;;;;;;4947835;29;20060;-84
2022/01/29 01:31:39;;;;;;;59.63;31.38;;;;;;;;;;4963611;29;20048;-83
2022/01/29 01:34:07;;;;;;;63.72;32.13;;;;;;;;;;4948271;29;20028;-83
2022/01/29 01:36:41;;;;;;;59.58;31.70;;;;;;;;;;4932173;29;20055;-83
2022/01/29 01:39:11;;;;;;;62.25;32.95;;;;;;;;;;4933247;29;20044;-83
2022/01/29 01:41:42;;;;;;;58.80;31.55;;;;;;;;;;4947845;29;20080;-84
2022/01/29 01:44:15;;;;;;;57.28;30.85;;;;;;;;;;4948403;29;20048;-82
2022/01/29 01:46:57;;;;;;;52.40;24.33;;;;;;;;;;4932413;29;20025;-82
2022/01/29 01:49:39;;;;;;;64.35;32.65;;;;;;;;;;4963945;29;20050;-82
2022/01/29 01:52:42;;;;;;;60.95;32.58;;;;;;;;;;4949473;29;20047;-83
2022/01/29 01:55:10;;;;;;;70.07;34.28;;;;;;;;;;4948123;29;20028;-82
2022/01/29 01:57:36;;;;;;;68.65;34.92;;;;;;;;;;4932181;29;20043;-83
2022/01/29 02:00:05;;;;;;;61.55;33.30;;;;;;;;;;4947725;29;20044;-84
2022/01/29 02:02:34;;;;;;;56.47;32.40;;;;;;;;;;4932801;29;20093;-84
2022/01/29 02:05:02;;;;;;;60.90;32.38;;;;;;;;;;4947864;29;20043;-83
2022/01/29 02:07:30;;;;;;;66.78;32.38;;;;;;;;;;4947346;29;20051;-83
2022/01/29 02:10:20;;;;;;;62.13;31.23;;;;;;;;;;4963272;29;20036;-84
2022/01/29 02:12:55;;;;;;;59.83;30.85;;;;;;;;;;4963886;29;20044;-84
2022/01/29 02:15:25;;;;;;;55.88;31.60;;;;;;;;;;4948227;29;20024;-84
2022/01/29 02:17:53;;;;;;;62.15;30.73;;;;;;;;;;4932147;29;20020;-84
2022/01/29 02:20:26;;;;;;;61.38;30.58;;;;;;;;;;4946960;29;20083;-83
2022/01/29 02:23:00;;;;;;;58.40;30.85;;;;;;;;;;4947017;29;20074;-82
2022/01/29 02:29:19;;;;;;;61.00;32.85;;;;;;;;;;4957464;29;20168;-86
2022/01/29 02:31:54;;;;;;;60.47;31.25;;;;;;;;;;4942969;29;20019;-82
2022/01/29 02:34:21;;;;;;;65.85;32.03;;;;;;;;;;4947117;29;20055;-83
2022/01/29 02:36:53;;;;;;;60.03;31.25;;;;;;;;;;4960422;29;20038;-84
2022/01/29 02:39:45;;;;;;;63.38;31.65;;;;;;;;;;4947058;29;20087;-81
2022/01/29 02:42:47;;;;;;;60.95;31.17;;;;;;;;;;4937570;29;20026;-83
2022/01/29 02:49:21;;;;;;;65.25;32.25;;;;;;;;;;4779208;29;20078;-83
2022/01/29 02:52:16;;;;;;;65.95;31.67;;;;;;;;;;4811231;29;20075;-83
2022/01/29 02:55:02;;;;;;;66.63;32.13;;;;;;;;;;4800215;29;20086;-84
2022/01/29 02:57:37;;;;;;;66.68;33.90;;;;;;;;;;4799149;29;20094;-84
2022/01/29 03:00:07;;;;;;;53.42;28.52;;;;;;;;;;4812483;29;20047;-84
2022/01/29 03:02:35;;;;;;;58.58;32.35;;;;;;;;;;4801801;29;20056;-83
2022/01/29 03:05:06;;;;;;;66.32;33.97;;;;;;;;;;4867700;29;20034;-83
2022/01/29 03:07:35;;;;;;;60.75;33.47;;;;;;;;;;4867922;29;20030;-82
2022/01/29 03:10:05;;;;;;;63.85;34.03;;;;;;;;;;4867636;29;20057;-84
2022/01/29 03:12:33;;;;;;;67.40;34.70;;;;;;;;;;4886292;29;20082;-84
2022/01/29 03:15:07;;;;;;;67.63;35.05;;;;;;;;;;4887642;29;20029;-84
2022/01/29 03:17:34;;;;;;;65.32;33.65;;;;;;;;;;4889301;29;20029;-83
2022/01/29 03:20:04;;;;;;;60.88;34.20;;;;;;;;;;4889240;29;20036;-84
2022/01/29 03:22:36;;;;;;;57.30;30.77;;;;;;;;;;4904686;29;20072;-83
2022/01/29 03:25:14;;;;;;;59.15;31.65;;;;;;;;;;4903018;29;20029;-83
2022/01/29 03:28:23;;;;;;;61.13;33.83;;;;;;;;;;4903106;29;20060;-82
2022/01/29 03:38:33;;;;;;;51.30;30.27;;;;;;;;;;4918206;29;20053;-83
2022/01/29 03:41:01;;;;;;;59.45;31.10;;;;;;;;;;4904594;29;20068;-83
2022/01/29 03:43:39;;;;;;;59.30;31.75;;;;;;;;;;4929876;29;20032;-83
2022/01/29 03:46:09;;;;;;;62.28;31.05;;;;;;;;;;4946853;29;20036;-83
2022/01/29 03:48:39;;;;;;;56.17;32.10;;;;;;;;;;4946222;28;20048;-83
2022/01/29 03:51:07;;;;;;;62.92;31.95;;;;;;;;;;4930205;28;20028;-83
2022/01/29 03:53:35;;;;;;;55.53;29.73;;;;;;;;;;4945731;28;20024;-82
2022/01/29 03:56:05;;;;;;;59.65;31.17;;;;;;;;;;4929963;28;20051;-83
2022/01/29 03:58:58;;;;;;;66.97;31.90;;;;;;;;;;4949286;28;20031;-84
2022/01/29 04:01:28;;;;;;;57.33;32.63;;;;;;;;;;4945602;28;20051;-82
2022/01/29 04:04:16;;;;;;;54.30;30.75;;;;;;;;;;4961779;28;20060;-82
2022/01/29 04:06:45;;;;;;;57.22;31.02;;;;;;;;;;4930003;28;20028;-83
2022/01/29 04:09:14;;;;;;;59.22;31.83;;;;;;;;;;4945276;28;20051;-81
2022/01/29 04:12:05;;;;;;;56.72;30.92;;;;;;;;;;4948761;28;20051;-83
2022/01/29 04:14:38;;;;;;;63.60;31.23;;;;;;;;;;4945374;28;20032;-83
2022/01/29 04:17:07;;;;;;;48.45;28.52;;;;;;;;;;4937798;29;20383;-83
2022/01/29 04:20:28;;;;;;;47.58;27.10;;;;;;;;;;4919364;29;20053;-85
2022/01/29 04:23:21;;;;;;;45.83;26.00;;;;;;;;;;4938498;29;20044;-82
2022/01/29 04:25:53;;;;;;;45.88;26.17;;;;;;;;;;4935781;29;20445;-83
2022/01/29 04:28:22;;;;;;;47.35;26.80;;;;;;;;;;4923979;29;20035;-83
2022/01/29 04:31:18;;;;;;;42.72;27.02;;;;;;;;;;4923657;29;20056;-83
2022/01/29 04:33:49;;;;;;;50.85;26.98;;;;;;;;;;4923962;29;20051;-82
2022/01/29 04:36:16;;;;;;;45.53;27.75;;;;;;;;;;4909192;29;20055;-84
2022/01/29 04:39:01;;;;;;;49.38;27.85;;;;;;;;;;4932220;29;20047;-83
2022/01/29 04:41:39;;;;;;;52.28;29.88;;;;;;;;;;4941471;29;20024;-82
2022/01/29 04:44:10;;;;;;;46.88;27.23;;;;;;;;;;4940822;29;20040;-82
2022/01/29 04:46:59;;;;;;;51.83;26.95;;;;;;;;;;4924907;29;20044;-83
2022/01/29 04:50:26;;;;;;;39.15;24.08;;;;;;;;;;4945268;29;20054;-83
2022/01/29 04:52:56;;;;;;;35.65;22.38;;;;;;;;;;4958917;29;20023;-84
2022/01/29 04:55:23;;;;;;;36.92;22.55;;;;;;;;;;4928583;29;20035;-82
2022/01/29 04:57:53;;;;;;;36.92;20.80;;;;;;;;;;4928215;29;20048;-83
2022/01/29 05:00:21;;;;;;;32.00;19.98;;;;;;;;;;4946576;29;20050;-81
2022/01/29 05:02:51;;;;;;;33.13;19.75;;;;;;;;;;4931866;29;20028;-81
2022/01/29 05:05:28;;;;;;;29.42;18.42;;;;;;;;;;4949208;29;20048;-83
2022/01/29 05:07:59;;;;;;;28.95;17.80;;;;;;;;;;4948379;29;20083;-83
2022/01/29 05:10:30;;;;;;;32.20;16.40;;;;;;;;;;4976251;28;20043;-83
2022/01/29 05:13:19;;;;;;;25.30;15.82;;;;;;;;;;4967267;28;20027;-83
2022/01/29 05:16:11;;;;;;;25.27;15.15;;;;;;;;;;4955680;28;20027;-82
2022/01/29 05:30:59;;;;;;;19.77;12.63;;;;;;;;;;4984162;28;20090;-82
2022/01/29 05:33:26;;;;;;;19.88;12.20;;;;;;;;;;4967950;28;20043;-83
2022/01/29 05:35:56;;;;;;;16.27;11.05;;;;;;;;;;4965380;28;20058;-83
2022/01/29 05:38:27;;;;;;;17.50;12.10;;;;;;;;;;4983023;28;20039;-83
2022/01/29 05:40:57;;;;;;;19.30;12.20;;;;;;;;;;4983177;28;20087;-82
2022/01/29 05:43:27;;;;;;;20.85;13.18;;;;;;;;;;4968220;28;20043;-82
2022/01/29 05:45:55;;;;;;;21.70;12.52;;;;;;;;;;4951924;28;20047;-85
2022/01/29 05:59:05;;;;;;;20.98;13.27;;;;;;;;;;4912884;29;20019;-82
2022/01/29 06:01:42;;;;;;;21.10;13.25;;;;;;;;;;4928548;29;20032;-82
2022/01/29 06:04:18;;;;;;;26.02;15.90;;;;;;;;;;4924762;29;20028;-82
2022/01/29 06:07:31;;;;;;;23.02;15.70;;;;;;;;;;4905300;29;20032;-84
2022/01/29 06:10:19;;;;;;;25.20;16.52;;;;;;;;;;4901575;29;20461;-83
2022/01/29 06:13:04;;;;;;;30.98;18.80;;;;;;;;;;4902671;29;20073;-83
2022/01/29 06:15:44;;;;;;;28.52;19.45;;;;;;;;;;4938908;29;20043;-85
2022/01/29 06:18:18;;;;;;;30.05;20.52;;;;;;;;;;4929913;29;20070;-84
2022/01/29 06:20:49;;;;;;;36.20;21.75;;;;;;;;;;4946493;29;20051;-83
2022/01/29 06:23:41;;;;;;;33.67;21.33;;;;;;;;;;4962107;29;20027;-84
2022/01/29 06:29:22;;;;;;;33.50;22.65;;;;;;;;;;4962154;28;20067;-84
2022/01/29 06:31:54;;;;;;;39.50;23.50;;;;;;;;;;4947767;28;20034;-85
2022/01/29 06:34:46;;;;;;;34.88;23.95;;;;;;;;;;4948551;28;20079;-84
2022/01/29 06:37:17;;;;;;;36.23;24.17;;;;;;;;;;4962773;28;20027;-83
2022/01/29 06:39:57;;;;;;;43.80;24.92;;;;;;;;;;4962821;28;20260;-83
2022/01/29 06:42:28;;;;;;;41.20;26.75;;;;;;;;;;4960344;28;20067;-85
2022/01/29 06:48:08;;;;;;;42.50;26.08;;;;;;;;;;4981143;28;20042;-82
2022/01/29 06:50:37;;;;;;;42.85;24.95;;;;;;;;;;4981827;28;20035;-81
2022/01/29 06:53:05;;;;;;;39.78;25.63;;;;;;;;;;4965318;28;20023;-82
2022/01/29 06:55:34;;;;;;;42.45;26.33;;;;;;;;;;4965997;28;20039;-81
2022/01/29 06:58:01;;;;;;;42.78;26.58;;;;;;;;;;4981441;28;20031;-83
2022/01/29 07:00:32;;;;;;;44.78;26.67;;;;;;;;;;4981706;28;20055;-83
2022/01/29 07:03:00;;;;;;;42.58;26.63;;;;;;;;;;4981590;28;20050;-82
2022/01/29 07:05:32;;;;;;;44.67;27.70;;;;;;;;;;4980922;28;20042;-82
2022/01/29 07:08:24;;;;;;;44.13;27.10;;;;;;;;;;4980674;28;20058;-80
2022/01/29 07:10:52;;;;;;;43.75;27.92;;;;;;;;;;4981308;28;20031;-79
2022/01/29 07:13:45;;;;;;;43.70;28.13;;;;;;;;;;4964694;29;20051;-81
2022/01/29 07:16:19;;;;;;;45.85;28.70;;;;;;;;;;4966078;28;20027;-81
2022/01/29 07:18:46;;;;;;;43.13;28.08;;;;;;;;;;4964081;28;20043;-80
2022/01/29 07:21:30;;;;;;;44.83;26.58;;;;;;;;;;4979781;28;20042;-80
2022/01/29 07:31:44;;;;;;;;;;;;;;;;;;;;;
2022/01/29 07:37:18;;;;;;;47.03;30.23;;;;;;;;;;4871959;29;20054;-80
2022/01/29 07:40:18;;;;;;;50.40;32.20;;;;;;;;;;4872671;29;20111;-79
2022/01/29 07:42:58;;;;;;;51.15;32.25;;;;;;;;;;4855073;29;20025;-79
2022/01/29 07:48:53;;;;;;;52.05;32.88;;;;;;;;;;4847913;29;20095;-77
2022/01/29 07:58:48;;;;;;;55.30;35.28;;;;;;;;;;4864234;29;20174;-80
2022/01/29 08:01:35;;;;;;;61.47;36.10;;;;;;;;;;4861720;29;20101;-80
2022/01/29 08:04:27;;;;;;;;;;;;;;;;;;;;;
2022/01/29 08:07:26;;;;;;;;;;;;;;;;;;;;;
2022/01/29 08:10:14;;;;;;;62.63;38.13;;;;;;;;;;4921267;29;20065;-78
2022/01/29 08:12:48;;;;;;;55.05;34.70;;;;;;;;;;4971189;28;20023;-81
2022/01/29 08:19:11;;;;;;;56.45;37.45;;;;;;;;;;4940415;29;20105;-78
2022/01/29 08:21:55;;;;;;;64.97;38.97;;;;;;;;;;4930153;29;20076;-79
2022/01/29 08:24:21;;;;;;;58.70;37.85;;;;;;;;;;4979577;28;20035;-78
2022/01/29 08:27:16;;;;;;;61.40;39.20;;;;;;;;;;4979486;28;20051;-79
2022/01/29 08:30:05;;;;;;;61.58;38.58;;;;;;;;;;4979518;28;20078;-78
2022/01/29 08:32:43;;;;;;;59.80;38.15;;;;;;;;;;4980306;28;20091;-78
2022/01/29 08:35:31;;;;;;;56.50;36.38;;;;;;;;;;4979637;28;20043;-78
2022/01/29 08:38:26;;;;;;;59.45;38.38;;;;;;;;;;4979334;28;20079;-79
2022/01/29 08:40:58;;;;;;;58.03;38.08;;;;;;;;;;4962880;28;20051;-80
2022/01/29 08:43:52;;;;;;;66.60;40.47;;;;;;;;;;4978293;28;20047;-80
2022/01/29 08:46:21;;;;;;;58.88;38.72;;;;;;;;;;4978474;28;20070;-80
2022/01/29 08:49:17;;;;;;;59.13;37.15;;;;;;;;;;4980924;28;20051;-80
2022/01/29 08:51:53;;;;;;;59.42;37.47;;;;;;;;;;4968994;28;20023;-80
2022/01/29 08:54:27;;;;;;;62.20;40.47;;;;;;;;;;4997892;28;20090;-79
2022/01/29 09:00:34;;;;;;;63.13;39.28;;;;;;;;;;4984248;28;20039;-80
2022/01/29 09:03:06;;;;;;;57.35;38.45;;;;;;;;;;4986044;28;20038;-79
2022/01/29 09:05:34;;;;;;;54.28;36.88;;;;;;;;;;4980055;28;20039;-79
2022/01/29 09:08:04;;;;;;;61.42;37.63;;;;;;;;;;4981015;28;20019;-78
2022/01/29 09:10:32;;;;;;;52.00;35.70;;;;;;;;;;4981072;28;20058;-78
2022/01/29 09:13:01;;;;;;;54.63;35.60;;;;;;;;;;4997217;28;20102;-79
2022/01/29 09:15:28;;;;;;;51.95;35.47;;;;;;;;;;4996745;28;20058;-80
2022/01/29 09:17:59;;;;;;;53.40;36.08;;;;;;;;;;4981427;28;20094;-80
2022/01/29 09:20:27;;;;;;;54.30;36.65;;;;;;;;;;4981215;28;20046;-78
2022/01/29 09:22:54;;;;;;;56.75;36.42;;;;;;;;;;4980915;28;20067;-81
2022/01/29 09:25:22;;;;;;;57.03;36.08;;;;;;;;;;4980729;28;20046;-79
2022/01/29 09:27:57;;;;;;;47.33;33.28;;;;;;;;;;4981314;28;20014;-77
2022/01/29 09:30:23;;;;;;;49.63;34.55;;;;;;;;;;4980848;28;20042;-81
2022/01/29 09:32:53;;;;;;;50.30;34.20;;;;;;;;;;4964385;28;20054;-79
2022/01/29 09:35:22;;;;;;;49.28;31.92;;;;;;;;;;4995516;28;20023;-81
2022/01/29 09:37:50;;;;;;;42.50;30.15;;;;;;;;;;4964223;28;20105;-79
2022/01/29 09:40:17;;;;;;;46.70;31.70;;;;;;;;;;4981206;28;20039;-81
2022/01/29 09:42:50;;;;;;;47.67;31.83;;;;;;;;;;4964039;28;20066;-78
2022/01/29 09:45:19;;;;;;;48.78;31.63;;;;;;;;;;4981373;28;20024;-77
2022/01/29 09:47:47;;;;;;;43.95;29.95;;;;;;;;;;4983664;28;20014;-81
2022/01/29 09:50:15;;;;;;;40.85;29.40;;;;;;;;;;4965303;28;20070;-78
2022/01/29 09:52:50;;;;;;;38.78;27.60;;;;;;;;;;4960758;28;20340;-79
2022/01/29 09:55:42;;;;;;;40.97;28.98;;;;;;;;;;4962145;28;20042;-77
2022/01/29 09:58:07;;;;;;;40.55;29.10;;;;;;;;;;4996428;28;20423;-78
2022/01/29 10:00:41;;;;;;;41.35;28.42;;;;;;;;;;4979466;28;20070;-81
2022/01/29 10:03:14;;;;;;;43.22;28.60;;;;;;;;;;4980609;28;20102;-78
2022/01/29 10:05:46;;;;;;;35.83;25.13;;;;;;;;;;4978961;28;20461;-78
2022/01/29 10:08:20;;;;;;;34.92;25.85;;;;;;;;;;4996118;28;20038;-77
2022/01/29 10:11:06;;;;;;;36.75;25.45;;;;;;;;;;4981051;28;20043;-77
2022/01/29 10:13:33;;;;;;;36.30;26.73;;;;;;;;;;4964884;28;20039;-78
2022/01/29 10:16:32;;;;;;;37.47;26.15;;;;;;;;;;4982054;28;20035;-80
2022/01/29 10:19:03;;;;;;;34.92;25.48;;;;;;;;;;4980841;28;20034;-81
2022/01/29 10:21:32;;;;;;;39.17;27.27;;;;;;;;;;4980353;28;20043;-81
2022/01/29 10:24:22;;;;;;;37.97;27.02;;;;;;;;;;4983907;28;20050;-79
2022/01/29 10:26:54;;;;;;;41.65;29.08;;;;;;;;;;4965381;28;20047;-78
2022/01/29 10:32:29;;;;;;;40.63;29.38;;;;;;;;;;4983056;28;20039;-80
2022/01/29 10:34:56;;;;;;;42.38;28.58;;;;;;;;;;4981816;28;20019;-79
2022/01/29 10:37:29;;;;;;;43.50;30.13;;;;;;;;;;4982751;28;20023;-78
2022/01/29 10:39:59;;;;;;;43.55;30.33;;;;;;;;;;4983114;28;20046;-78
2022/01/29 10:42:48;;;;;;;43.35;31.10;;;;;;;;;;4979450;28;20038;-78
2022/01/29 10:45:15;;;;;;;46.70;31.42;;;;;;;;;;4984360;28;20035;-81
2022/01/29 10:48:00;;;;;;;42.60;30.98;;;;;;;;;;4982698;28;20082;-78
2022/01/29 10:54:26;;;;;;;36.60;27.42;;;;;;;;;;4921805;29;20047;-77
2022/01/29 11:18:25;;;;;;;;;;;;;;;;;;;;;
2022/01/29 11:24:43;;;;;;;;;;;;;;;;;;;;;
2022/01/29 11:35:20;;;;;;;20.73;15.95;;;;;;;;;;4904681;29;20053;-77
2022/01/29 11:38:36;;;;;;;20.65;15.23;;;;;;;;;;4849008;29;20121;-78
2022/01/29 12:07:24;;;;;;;;;;;;;;;;;;;;;
2022/01/29 12:25:10;;;;;;;12.23;8.80;;;;;;;;;;4848221;29;20090;-80
2022/01/29 12:28:09;;;;;;;11.23;8.48;;;;;;;;;;4833131;29;20055;-78
2022/01/29 12:31:39;;;;;;;11.23;7.60;;;;;;;;;;4816033;29;20077;-78
2022/01/29 12:34:27;;;;;;;10.48;7.18;;;;;;;;;;4847716;29;20072;-79
2022/01/29 12:43:52;;;;;;;8.10;5.28;;;;;;;;;;4824609;29;20064;-78
2022/01/29 12:50:20;;;;;;;8.57;5.03;;;;;;;;;;4856679;29;20050;-78
2022/01/29 13:00:42;;;;;;;;;;;;;;;;;;;;;
2022/01/29 13:07:50;;;;;;;;;;;;;;;;;;;;;
2022/01/29 13:11:23;;;;;;;10.32;4.82;;;;;;;;;;4788906;29;20149;-76
2022/01/29 13:25:07;;;;;;;9.45;5.20;;;;;;;;;;4747105;30;20052;-78
2022/01/29 13:31:24;;;;;;;7.88;5.65;;;;;;;;;;4761148;30;20057;-78
2022/01/29 13:34:47;;;;;;;9.52;5.65;;;;;;;;;;4789096;29;20087;-77
2022/01/29 13:52:54;;;;;;;9.60;5.28;;;;;;;;;;4789846;29;20046;-77
2022/01/29 13:55:22;;;;;;;8.48;5.30;;;;;;;;;;4869318;29;20037;-79
2022/01/29 13:58:33;;;;;;;10.40;5.85;;;;;;;;;;4869032;29;20093;-79
2022/01/29 14:01:17;;;;;;;8.32;5.18;;;;;;;;;;4882831;29;20029;-77
2022/01/29 14:04:48;;;;;;;9.27;5.35;;;;;;;;;;4887808;29;20100;-75
2022/01/29 14:08:09;;;;;;;9.02;5.40;;;;;;;;;;4875411;29;20029;-76
2022/01/29 14:14:09;;;;;;;;;;;;;;;;;;;;;
2022/01/29 14:17:11;;;;;;;11.82;5.13;;;;;;;;;;4983094;28;20054;-76
2022/01/29 14:27:13;;;;;;;;;;;;;;;;;;;;;
2022/01/29 14:33:48;;;;;;;6.55;4.40;;;;;;;;;;4868188;29;20067;-79
2022/01/29 14:37:18;;;;;;;8.25;4.85;;;;;;;;;;4850081;29;20109;-78
2022/01/29 14:39:47;;;;;;;7.95;5.72;;;;;;;;;;4822979;29;20049;-80
2022/01/29 14:42:15;;;;;;;7.90;5.65;;;;;;;;;;4914398;29;20032;-80
2022/01/29 14:44:44;;;;;;;10.68;6.35;;;;;;;;;;4911820;29;20073;-80
2022/01/29 14:47:14;;;;;;;10.65;5.90;;;;;;;;;;4911616;29;20030;-78
2022/01/29 14:49:48;;;;;;;10.93;6.93;;;;;;;;;;4911958;29;20056;-78
2022/01/29 14:52:36;;;;;;;10.65;7.53;;;;;;;;;;4915935;29;20047;-77
2022/01/29 14:55:08;;;;;;;11.57;8.13;;;;;;;;;;4909554;29;20040;-79
2022/01/29 14:58:03;;;;;;;12.95;8.60;;;;;;;;;;4894204;29;20080;-78
2022/01/29 15:00:44;;;;;;;11.85;8.77;;;;;;;;;;5067153;23;20058;-81
2022/01/29 15:03:30;;;;;;;16.55;10.73;;;;;;;;;;4987687;28;20047;-81
2022/01/29 15:05:57;;;;;;;17.48;10.32;;;;;;;;;;5003841;28;20026;-80
2022/01/29 15:08:34;;;;;;;13.60;9.38;;;;;;;;;;4987505;28;20050;-79
2022/01/29 15:11:01;;;;;;;13.00;9.98;;;;;;;;;;5003956;28;20081;-78
2022/01/29 15:13:57;;;;;;;13.60;10.02;;;;;;;;;;4985244;28;20046;-80
2022/01/29 15:23:02;;;;;;;17.58;11.60;;;;;;;;;;4975252;28;20049;-78
2022/01/29 15:25:30;;;;;;;22.33;11.52;;;;;;;;;;4985248;28;20043;-81
2022/01/29 15:27:59;;;;;;;17.88;12.40;;;;;;;;;;5001696;28;20047;-79
2022/01/29 15:31:04;;;;;;;17.05;12.18;;;;;;;;;;5002272;28;20041;-79
2022/01/29 15:33:31;;;;;;;18.95;12.23;;;;;;;;;;4996429;28;20034;-77
2022/01/29 15:35:58;;;;;;;19.17;11.32;;;;;;;;;;5016897;28;20042;-79
2022/01/29 15:38:40;;;;;;;18.90;11.23;;;;;;;;;;4984420;28;20056;-79
2022/01/29 15:41:32;;;;;;;20.55;13.25;;;;;;;;;;4991406;28;20065;-80
2022/01/29 15:44:20;;;;;;;16.55;12.63;;;;;;;;;;5000696;28;20047;-81
2022/01/29 15:46:47;;;;;;;16.65;12.45;;;;;;;;;;5001883;28;20050;-80
2022/01/29 15:49:16;;;;;;;20.98;12.75;;;;;;;;;;4986403;28;20062;-80
2022/01/29 15:51:42;;;;;;;21.17;12.52;;;;;;;;;;4985853;28;20053;-79
2022/01/29 15:55:14;;;;;;;20.95;13.10;;;;;;;;;;4985626;28;20038;-81
2022/01/29 15:57:23;;;;;;;20.15;12.73;;;;;;;;;;5005203;28;20054;-81
2022/01/29 16:00:17;;;;;;;18.75;13.27;;;;;;;;;;5002897;28;20049;-78
2022/01/29 16:02:52;;;;;;;21.73;12.48;;;;;;;;;;4982409;28;20098;-81
2022/01/29 16:11:35;;;;;;;22.00;13.57;;;;;;;;;;4946855;29;20059;-78
2022/01/29 16:17:35;;;;;;;21.08;13.15;;;;;;;;;;4884295;29;20079;-79
2022/01/29 16:20:05;;;;;;;24.92;13.82;;;;;;;;;;4899237;29;20016;-79
2022/01/29 16:22:34;;;;;;;19.30;12.95;;;;;;;;;;4919005;29;20048;-79
2022/01/29 16:25:17;;;;;;;;;;;;;;;;;;;;;
2022/01/29 16:27:49;;;;;;;19.83;13.07;;;;;;;;;;4936735;28;20053;-82
2022/01/29 16:30:18;;;;;;;25.10;14.45;;;;;;;;;;4981378;28;20055;-81
2022/01/29 16:32:54;;;;;;;19.40;12.00;;;;;;;;;;4967297;28;20054;-81
2022/01/29 16:35:30;;;;;;;17.85;10.68;;;;;;;;;;4965575;28;20091;-82
2022/01/29 16:38:00;;;;;;;22.58;12.25;;;;;;;;;;4965368;28;20034;-82
2022/01/29 16:40:26;;;;;;;17.38;11.50;;;;;;;;;;4963798;28;20047;-80
2022/01/29 16:42:58;;;;;;;21.35;12.32;;;;;;;;;;4964308;28;20018;-78
2022/01/29 17:28:50;;;;;;;20.60;11.88;;;;;;;;;;4888098;29;20035;-79
2022/01/29 18:13:50;;;;;;;10.90;5.25;;;;;;;;;;4807825;29;20049;-79
2022/01/29 18:56:01;;;;;;;;;;;;;;;;;;;;;
2022/01/29 18:59:07;;;;;;;15.13;3.08;;;;;;;;;;4977484;28;20021;-79
2022/01/29 19:19:45;;;;;;;19.15;3.97;;;;;;;;;;4906010;29;20015;-78
2022/01/29 19:29:32;;;;;;;19.10;4.22;;;;;;;;;;4945694;29;20055;-79
2022/01/29 19:33:05;;;;;;;26.17;4.00;;;;;;;;;;4943208;28;20049;-77
2022/01/29 19:39:48;;;;;;;23.02;4.65;;;;;;;;;;4899852;29;20135;-78
2022/01/29 19:43:13;;;;;;;18.80;4.05;;;;;;;;;;4827904;29;20030;-79
2022/01/29 19:46:00;;;;;;;22.17;4.60;;;;;;;;;;4835519;29;20093;-79
2022/01/29 19:48:27;;;;;;;19.60;4.32;;;;;;;;;;4833780;29;20106;-79
2022/01/29 19:57:11;;;;;;;25.88;4.32;;;;;;;;;;4829528;29;20045;-77
2022/01/29 19:59:47;;;;;;;22.23;4.53;;;;;;;;;;4829642;29;20039;-79
2022/01/29 20:02:14;;;;;;;23.58;4.40;;;;;;;;;;4811942;29;20061;-78
2022/01/29 20:05:01;;;;;;;;;;;;;;;;;;;;;
2022/01/29 20:07:40;;;;;;;22.98;4.30;;;;;;;;;;4863500;29;20070;-79
2022/01/29 20:10:27;;;;;;;28.70;4.32;;;;;;;;;;4903420;29;20105;-78
2022/01/29 20:13:02;;;;;;;24.48;5.00;;;;;;;;;;4904312;29;20033;-79
2022/01/29 20:15:32;;;;;;;25.58;4.38;;;;;;;;;;4903644;29;20033;-79
2022/01/29 20:18:15;;;;;;;21.80;3.97;;;;;;;;;;4904151;29;20069;-77
2022/01/29 20:21:04;;;;;;;23.87;4.37;;;;;;;;;;4904966;29;20076;-79
2022/01/29 20:24:18;;;;;;;23.55;4.50;;;;;;;;;;4942240;28;20027;-78
2022/01/29 20:27:05;;;;;;;25.70;4.45;;;;;;;;;;4926491;28;20024;-78
2022/01/29 20:40:54;;;;;;;24.70;4.40;;;;;;;;;;4904481;28;20049;-78
2022/01/29 20:44:05;;;;;;;;;;;;;;;;;;;;;
2022/01/29 21:12:05;;;;;;;25.63;4.93;;;;;;;;;;4859358;29;20057;-76
2022/01/29 21:15:41;;;;;;;25.73;4.87;;;;;;;;;;4848353;29;20067;-79
2022/01/29 21:25:43;;;;;;;;;;;;;;;;;;;;;
2022/01/29 21:28:20;;;;;;;29.08;5.90;;;;;;;;;;4915399;29;20580;-78
2022/01/29 21:31:11;;;;;;;24.88;5.70;;;;;;;;;;4922317;29;20053;-78
2022/01/29 21:34:07;;;;;;;34.95;5.28;;;;;;;;;;4938009;28;20031;-78
2022/01/29 21:36:40;;;;;;;32.95;5.72;;;;;;;;;;4978631;28;20085;-79
2022/01/29 21:39:21;;;;;;;29.92;6.07;;;;;;;;;;5015416;28;20057;-78
2022/01/29 21:42:12;;;;;;;32.70;5.82;;;;;;;;;;5001072;28;20083;-79
2022/01/29 21:45:03;;;;;;;37.17;6.43;;;;;;;;;;5010514;28;20031;-78
2022/01/29 21:48:05;;;;;;;24.83;5.20;;;;;;;;;;4988618;28;20038;-78
2022/01/29 21:51:35;;;;;;;40.20;6.07;;;;;;;;;;4961135;29;20101;-77
2022/01/29 22:01:03;;;;;;;34.33;5.65;;;;;;;;;;4852790;29;20030;-78
2022/01/29 22:03:32;;;;;;;33.35;5.80;;;;;;;;;;4838847;29;20029;-78
2022/01/29 22:06:13;;;;;;;33.40;5.85;;;;;;;;;;4851744;29;20077;-78
2022/01/29 22:08:49;;;;;;;33.72;5.65;;;;;;;;;;4952033;28;20027;-77
2022/01/29 22:11:18;;;;;;;35.38;5.95;;;;;;;;;;4986128;28;20054;-78
2022/01/29 22:13:47;;;;;;;33.10;5.22;;;;;;;;;;4977117;28;20028;-78
2022/01/29 22:16:38;;;;;;;30.13;5.80;;;;;;;;;;4976095;28;20026;-81
2022/01/29 22:19:40;;;;;;;;;;;;;;;;;;;;;
2022/01/29 22:23:28;;;;;;;;;;;;;;;;;;;;;
2022/01/29 22:29:31;;;;;;;34.22;5.88;;;;;;;;;;4905589;29;20077;-79
2022/01/29 22:32:53;;;;;;;39.22;5.35;;;;;;;;;;4872320;29;20045;-79
2022/01/29 22:53:50;;;;;;;28.08;4.88;;;;;;;;;;4812709;29;20038;-77
2022/01/29 23:00:48;;;;;;;29.63;4.63;;;;;;;;;;4853080;29;20111;-77
2022/01/29 23:14:57;;;;;;;26.88;4.72;;;;;;;;;;4867649;29;20040;-79
2022/01/29 23:24:37;;;;;;;17.40;3.75;;;;;;;;;;4888984;29;20024;-79
2022/01/29 23:41:19;;;;;;;28.20;5.10;;;;;;;;;;4795934;30;20050;-78
2022/01/29 23:44:08;;;;;;;26.48;5.43;;;;;;;;;;4805721;29;20055;-79
2022/01/29 23:50:00;;;;;;;32.25;5.20;;;;;;;;;;4865714;29;20070;-79
2022/01/29 23:52:31;;;;;;;30.23;5.28;;;;;;;;;;4884472;29;20053;-78
2022/01/29 23:55:02;;;;;;;24.73;5.18;;;;;;;;;;4867662;29;20071;-79
2022/01/29 23:57:33;;;;;;;26.50;4.85;;;;;;;;;;4900100;29;20032;-79
